Weather at Klaipėda Airfield

Public forecast

Using degrees Celsius for public forecast. Weather courtesy of forecast.io.

Closest aviation weather report (METAR) to Klaipėda Airfield

Closest report is Palanga International Airport, 16.5 nm (30.5 km) NNW.

2024/05/25 17:50 (retrieved 15 minutes ago)

EYPA 251750Z 07008KT 040V100 9999 TS VCSH FEW061CB 20/12 Q1023

Closest aviation forecast (TAF) to Klaipėda Airfield

Closest forecast is Palanga International Airport, 16.5 nm (30.5 km) NNW.

2024/05/25 18:06 (retrieved 0 seconds ago)

TAF EYPA 251700Z 2518/2618 VRB04KT 9000 NSC TEMPO 2518/2524 VRB14KT 5000 TSRA BKN045CB TEMPO 2606/2612 12014KT SCT050TCU TEMPO 2612/2618 14014KT 5000 TSRA BKN045CB